createdAt,value
2022-10-26T00:01:26.644Z,96271.75
2022-10-26T00:04:28.282Z,96278.47
2022-10-26T00:07:30.421Z,96265.13
2022-10-26T00:10:34.956Z,96242.63
2022-10-26T00:13:37.676Z,96236.28
2022-10-26T00:16:39.221Z,96226.44
2022-10-26T00:19:40.850Z,96206.22
2022-10-26T00:22:42.451Z,96221.59
2022-10-26T00:25:44.675Z,96233.81
2022-10-26T00:28:46.232Z,96247.50
2022-10-26T00:31:47.780Z,96244.53
2022-10-26T00:34:49.293Z,96253.41
2022-10-26T00:37:55.962Z,96244.88
2022-10-26T00:44:42.900Z,96238.06
2022-10-26T00:47:53.025Z,96233.56
2022-10-26T00:50:58.488Z,96234.91
2022-10-26T00:54:04.050Z,96232.25
2022-10-26T00:57:06.435Z,96244.59
2022-10-26T01:00:08.596Z,96234.56
2022-10-26T01:03:11.253Z,96239.78
2022-10-26T01:06:14.194Z,96227.25
2022-10-26T01:09:17.800Z,96231.41
2022-10-26T01:12:19.301Z,96221.56
2022-10-26T01:15:27.409Z,96216.22
2022-10-26T01:18:38.180Z,96235.28
2022-10-26T01:22:02.138Z,96230.78
2022-10-26T01:25:32.712Z,96235.78
2022-10-26T01:28:58.677Z,96246.34
2022-10-26T01:32:10.709Z,96236.47
2022-10-26T01:35:28.990Z,96244.34
2022-10-26T01:38:35.643Z,96240.69
2022-10-26T01:41:49.911Z,96227.13
2022-10-26T01:45:02.634Z,96218.25
2022-10-26T01:48:04.591Z,96244.00
2022-10-26T01:51:08.348Z,96230.63
2022-10-26T01:54:10.573Z,96249.19
2022-10-26T01:57:15.438Z,96240.19
2022-10-26T02:00:17.235Z,96250.72
2022-10-26T02:03:33.941Z,96244.38
2022-10-26T02:07:08.217Z,96251.38
2022-10-26T02:10:18.535Z,96253.03
2022-10-26T02:13:44.617Z,96258.41
2022-10-26T02:17:02.624Z,96258.25
2022-10-26T02:20:08.759Z,96258.09
2022-10-26T02:23:12.166Z,96239.69
2022-10-26T02:26:18.124Z,96224.47
2022-10-26T02:29:21.139Z,96227.00
2022-10-26T02:32:25.882Z,96215.47
2022-10-26T02:35:34.552Z,96220.50
2022-10-26T02:38:39.432Z,96215.28
2022-10-26T02:41:43.759Z,96213.47
2022-10-26T02:44:51.405Z,96222.81
2022-10-26T02:47:54.560Z,96202.41
2022-10-26T02:51:18.298Z,96218.16
2022-10-26T02:54:51.233Z,96206.47
2022-10-26T02:57:58.236Z,96208.28
2022-10-26T03:01:00.413Z,96197.91
2022-10-26T03:04:02.174Z,96197.25
2022-10-26T03:07:03.765Z,96203.94
2022-10-26T03:10:05.826Z,96196.06
2022-10-26T03:13:07.914Z,96198.91
2022-10-26T03:16:09.624Z,96199.59
2022-10-26T03:19:11.197Z,96192.56
2022-10-26T03:22:12.728Z,96199.44
2022-10-26T03:25:15.602Z,96200.44
2022-10-26T03:28:17.141Z,96203.94
2022-10-26T03:31:18.724Z,96211.97
2022-10-26T03:34:21.043Z,96227.84
2022-10-26T03:37:22.515Z,96240.53
2022-10-26T03:40:24.121Z,96243.91
2022-10-26T03:43:25.621Z,96240.38
2022-10-26T03:46:27.129Z,96242.06
2022-10-26T03:49:28.992Z,96236.88
2022-10-26T03:52:30.507Z,96242.91
2022-10-26T03:55:32.053Z,96242.06
2022-10-26T03:58:33.613Z,96255.59
2022-10-26T04:01:35.277Z,96255.59
2022-10-26T04:04:36.917Z,96251.91
2022-10-26T04:07:38.478Z,96256.44
2022-10-26T04:10:40.057Z,96252.06
2022-10-26T04:13:41.606Z,96250.25
2022-10-26T04:16:43.165Z,96253.91
2022-10-26T04:19:44.693Z,96255.75
2022-10-26T04:22:46.252Z,96260.25
2022-10-26T04:25:47.853Z,96266.59
2022-10-26T04:28:49.407Z,96276.16
2022-10-26T04:31:50.990Z,96290.34
2022-10-26T04:34:54.350Z,96315.25
2022-10-26T04:38:00.091Z,96351.03
2022-10-26T04:41:01.787Z,96372.56
2022-10-26T04:44:03.332Z,96377.63
2022-10-26T04:47:04.884Z,96404.22
2022-10-26T04:50:08.319Z,96367.75
2022-10-26T04:53:10.571Z,96375.09
2022-10-26T04:56:12.102Z,96369.09
2022-10-26T04:59:13.629Z,96349.38
2022-10-26T05:02:15.341Z,96357.94
2022-10-26T05:05:17.010Z,96342.72
2022-10-26T05:08:18.528Z,96359.59
2022-10-26T05:11:20.032Z,96374.66
2022-10-26T05:14:21.594Z,96387.03
2022-10-26T05:17:23.145Z,96379.84
2022-10-26T05:20:31.994Z,96386.03
2022-10-26T05:23:33.532Z,96389.84
2022-10-26T05:26:35.055Z,96386.88
2022-10-26T05:29:36.610Z,96351.41
2022-10-26T05:32:38.133Z,96339.88
2022-10-26T05:35:40.287Z,96334.88
2022-10-26T05:38:41.807Z,96334.88
2022-10-26T05:41:43.321Z,96345.22
2022-10-26T05:44:44.854Z,96347.75
2022-10-26T05:47:47.126Z,96375.88
2022-10-26T05:50:49.051Z,96358.59
2022-10-26T05:53:54.290Z,96352.94
2022-10-26T05:56:56.400Z,96354.94
2022-10-26T05:59:58.333Z,96348.59
2022-10-26T06:03:43.220Z,96346.91
2022-10-26T06:06:47.147Z,96352.94
2022-10-26T06:09:49.537Z,96353.78
2022-10-26T06:12:51.654Z,96345.75
2022-10-26T06:16:02.699Z,96360.81
2022-10-26T06:19:19.177Z,96356.28
2022-10-26T06:22:37.416Z,96367.84
2022-10-26T06:26:01.789Z,96360.31
2022-10-26T06:29:25.318Z,96357.47
2022-10-26T06:32:27.978Z,96367.00
2022-10-26T06:35:37.250Z,96367.53
2022-10-26T06:38:41.390Z,96358.34
2022-10-26T06:41:43.312Z,96365.03
2022-10-26T06:44:45.292Z,96358.53
2022-10-26T06:48:07.478Z,96364.22
2022-10-26T06:51:14.696Z,96367.59
2022-10-26T06:54:21.228Z,96358.56
2022-10-26T06:57:24.705Z,96377.78
2022-10-26T07:00:26.758Z,96373.81
2022-10-26T07:03:28.412Z,96370.63
2022-10-26T07:06:31.694Z,96382.84
2022-10-26T07:09:34.885Z,96381.66
2022-10-26T07:12:36.961Z,96380.53
2022-10-26T07:15:40.561Z,96376.50
2022-10-26T07:18:42.122Z,96372.13
2022-10-26T07:21:43.627Z,96374.34
2022-10-26T07:24:45.199Z,96391.25
2022-10-26T07:27:47.322Z,96388.22
2022-10-26T07:30:51.787Z,96378.34
2022-10-26T07:33:57.682Z,96378.03
2022-10-26T07:37:00.058Z,96374.38
2022-10-26T07:40:05.672Z,96374.03
2022-10-26T07:43:08.258Z,96378.94
2022-10-26T07:46:09.769Z,96383.94
2022-10-26T07:49:11.580Z,96402.84
2022-10-26T07:52:13.099Z,96390.63
2022-10-26T07:55:14.823Z,96404.38
2022-10-26T07:58:16.550Z,96415.13
2022-10-26T08:01:18.185Z,96426.00
2022-10-26T08:04:19.841Z,96417.63
2022-10-26T08:07:21.764Z,96429.03
2022-10-26T08:10:23.337Z,96421.31
2022-10-26T08:13:24.975Z,96416.31
2022-10-26T08:16:26.590Z,96421.63
2022-10-26T08:19:28.135Z,96423.47
2022-10-26T08:22:30.732Z,96422.78
2022-10-26T08:25:33.182Z,96423.47
2022-10-26T08:28:34.743Z,96422.13
2022-10-26T08:31:36.245Z,96424.97
2022-10-26T08:34:37.810Z,96430.81
2022-10-26T08:37:39.325Z,96433.66
2022-10-26T08:40:42.950Z,96425.09
2022-10-26T08:43:52.727Z,96425.25
2022-10-26T08:47:07.043Z,96431.75
2022-10-26T08:50:31.381Z,96432.09
2022-10-26T08:53:47.934Z,96432.25
2022-10-26T08:56:57.028Z,96435.28
2022-10-26T08:59:58.767Z,96431.06
2022-10-26T09:03:00.281Z,96431.38
2022-10-26T09:06:04.456Z,96430.50
2022-10-26T09:09:15.063Z,96429.47
2022-10-26T09:12:31.671Z,96439.78
2022-10-26T09:15:47.970Z,96437.75
2022-10-26T09:18:49.459Z,96447.06
2022-10-26T09:22:20.753Z,96450.22
2022-10-26T09:25:24.551Z,96447.78
2022-10-26T09:28:28.539Z,96444.19
2022-10-26T09:31:38.422Z,96446.47
2022-10-26T09:34:53.824Z,96451.78
2022-10-26T09:38:00.880Z,96449.72
2022-10-26T09:41:08.522Z,96459.38
2022-10-26T09:44:36.321Z,96456.28
2022-10-26T09:47:46.427Z,96469.47
2022-10-26T09:50:49.931Z,96479.31
2022-10-26T09:53:51.510Z,96482.94
2022-10-26T09:56:56.808Z,96485.22
2022-10-26T09:59:58.378Z,96483.66
2022-10-26T10:03:00.075Z,96480.31
2022-10-26T10:06:17.643Z,96476.53
2022-10-26T10:09:24.671Z,96482.09
2022-10-26T10:12:26.241Z,96483.72
2022-10-26T10:15:27.762Z,96483.13
2022-10-26T10:18:29.733Z,96493.66
2022-10-26T10:21:39.673Z,96499.97
2022-10-26T10:24:54.878Z,96500.03
2022-10-26T10:27:56.435Z,96499.28
2022-10-26T10:31:07.139Z,96503.94
2022-10-26T10:34:17.966Z,96502.53
2022-10-26T10:37:30.495Z,96504.47
2022-10-26T10:40:32.362Z,96497.50
2022-10-26T10:43:36.320Z,96497.56
2022-10-26T10:46:38.069Z,96502.41
2022-10-26T10:49:39.686Z,96503.31
2022-10-26T10:52:42.393Z,96508.97
2022-10-26T10:55:55.224Z,96508.38
2022-10-26T10:59:38.339Z,96518.63
2022-10-26T11:03:05.817Z,96518.88
2022-10-26T11:06:20.442Z,96515.81
2022-10-26T11:09:27.801Z,96524.34
2022-10-26T11:12:47.195Z,96522.13
2022-10-26T11:15:52.912Z,96529.66
2022-10-26T11:19:03.098Z,96524.69
2022-10-26T11:22:09.201Z,96538.06
2022-10-26T11:25:18.984Z,96527.34
2022-10-26T11:28:37.460Z,96530.50
2022-10-26T11:31:47.410Z,96527.03
2022-10-26T11:35:13.951Z,96525.41
2022-10-26T11:38:46.680Z,96533.56
2022-10-26T11:42:46.950Z,96525.97
2022-10-26T11:46:03.539Z,96529.38
2022-10-26T11:52:44.746Z,96529.88
2022-10-26T11:55:50.086Z,96542.16
2022-10-26T11:58:52.423Z,96546.13
2022-10-26T12:02:26.256Z,96546.97
2022-10-26T12:05:37.050Z,96547.63
2022-10-26T12:09:07.443Z,96546.41
2022-10-26T12:12:37.798Z,96559.50
2022-10-26T12:16:04.752Z,96559.72
2022-10-26T12:19:18.424Z,96565.13
2022-10-26T12:22:23.500Z,96569.69
2022-10-26T12:25:25.068Z,96573.66
2022-10-26T12:28:41.266Z,96579.72
2022-10-26T12:31:43.599Z,96585.78
2022-10-26T12:34:45.052Z,96584.94
2022-10-26T12:37:46.642Z,96584.53
2022-10-26T12:40:49.352Z,96585.81
2022-10-26T12:43:56.118Z,96584.56
2022-10-26T12:46:57.636Z,96588.59
2022-10-26T12:50:22.597Z,96582.34
2022-10-26T12:53:26.045Z,96588.66
2022-10-26T12:56:50.212Z,96578.06
2022-10-26T12:59:54.485Z,96586.41
2022-10-26T13:03:02.179Z,96583.56
2022-10-26T13:06:28.427Z,96582.38
2022-10-26T13:09:33.344Z,96579.31
2022-10-26T13:12:53.676Z,96586.84
2022-10-26T13:15:57.275Z,96584.19
2022-10-26T13:19:00.043Z,96577.72
2022-10-26T13:22:01.836Z,96581.28
2022-10-26T13:25:07.020Z,96582.75
2022-10-26T13:28:32.269Z,96577.75
2022-10-26T13:31:34.381Z,96580.91
2022-10-26T13:34:42.512Z,96585.06
2022-10-26T13:37:50.759Z,96581.13
2022-10-26T13:41:03.896Z,96586.09
2022-10-26T13:44:18.306Z,96585.25
2022-10-26T13:47:49.325Z,96593.59
2022-10-26T13:50:54.809Z,96590.91
2022-10-26T13:54:34.986Z,96596.69
2022-10-26T13:57:42.159Z,96601.28
2022-10-26T14:01:10.424Z,96599.41
2022-10-26T14:04:26.521Z,96597.72
2022-10-26T14:07:37.489Z,96596.31
2022-10-26T14:10:42.234Z,96600.88
2022-10-26T14:13:44.107Z,96598.56
2022-10-26T14:16:47.017Z,96602.56
2022-10-26T14:19:49.806Z,96602.78
2022-10-26T14:22:52.341Z,96608.41
2022-10-26T14:25:58.867Z,96615.50
2022-10-26T14:29:02.021Z,96608.84
2022-10-26T14:32:25.723Z,96611.78
2022-10-26T14:35:32.690Z,96613.66
2022-10-26T14:38:44.052Z,96620.94
2022-10-26T14:41:45.730Z,96624.47
2022-10-26T14:44:47.357Z,96623.41
2022-10-26T14:47:50.332Z,96629.84
2022-10-26T14:51:15.542Z,96627.75
2022-10-26T14:54:22.348Z,96631.47
2022-10-26T14:57:35.816Z,96632.69
2022-10-26T15:00:37.441Z,96627.88
2022-10-26T15:03:39.423Z,96642.44
2022-10-26T15:06:43.432Z,96637.84
2022-10-26T15:09:49.552Z,96652.59
2022-10-26T15:12:51.106Z,96655.69
2022-10-26T15:15:58.064Z,96664.22
2022-10-26T15:19:08.656Z,96665.22
2022-10-26T15:22:23.148Z,96661.25
2022-10-26T15:25:29.115Z,96664.34
2022-10-26T15:28:40.563Z,96668.28
2022-10-26T15:31:42.113Z,96666.16
2022-10-26T15:34:48.492Z,96667.16
2022-10-26T15:37:52.517Z,96670.22
2022-10-26T15:40:54.042Z,96656.63
2022-10-26T15:43:57.853Z,96669.47
2022-10-26T15:47:05.085Z,96672.09
2022-10-26T15:50:13.197Z,96671.19
2022-10-26T15:53:28.609Z,96673.84
2022-10-26T15:56:31.585Z,96682.72
2022-10-26T15:59:33.154Z,96683.69
2022-10-26T16:02:37.332Z,96681.09
2022-10-26T16:05:38.909Z,96691.91
2022-10-26T16:08:40.608Z,96687.94
2022-10-26T16:11:43.018Z,96695.97
2022-10-26T16:15:04.257Z,96705.47
2022-10-26T16:18:06.165Z,96711.47
2022-10-26T16:21:12.525Z,96707.00
2022-10-26T16:24:14.167Z,96702.66
2022-10-26T16:27:15.790Z,96698.84
2022-10-26T16:30:18.285Z,96706.09
2022-10-26T16:33:19.857Z,96700.34
2022-10-26T16:46:11.769Z,96737.38
2022-10-26T16:57:36.725Z,96744.81
2022-10-26T17:00:38.306Z,96755.22
2022-10-26T17:03:39.845Z,96753.44
2022-10-26T17:06:41.797Z,96757.41
2022-10-26T17:09:46.509Z,96759.31
2022-10-26T17:12:48.416Z,96767.47
2022-10-26T17:15:50.503Z,96766.66
2022-10-26T17:18:53.028Z,96775.16
2022-10-26T17:21:54.618Z,96773.97
2022-10-26T17:24:56.377Z,96780.44
2022-10-26T17:27:58.700Z,96768.91
2022-10-26T17:31:12.221Z,96789.63
2022-10-26T17:34:13.758Z,96792.34
2022-10-26T17:37:15.401Z,96803.13
2022-10-26T17:40:17.358Z,96801.50
2022-10-26T17:43:18.912Z,96806.72
2022-10-26T17:46:23.831Z,96810.63
2022-10-26T17:49:27.968Z,96806.78
2022-10-26T17:52:31.222Z,96813.88
2022-10-26T17:55:32.787Z,96823.63
2022-10-26T17:58:35.073Z,96823.44
2022-10-26T18:01:36.720Z,96830.50
2022-10-26T18:04:38.369Z,96831.16
2022-10-26T18:07:39.901Z,96834.69
2022-10-26T18:10:48.304Z,96842.44
2022-10-26T18:13:49.848Z,96844.13
2022-10-26T18:16:51.433Z,96853.69
2022-10-26T18:19:52.971Z,96857.91
2022-10-26T18:22:55.933Z,96856.88
2022-10-26T18:26:12.887Z,96856.19
2022-10-26T18:29:14.913Z,96868.78
2022-10-26T18:32:16.450Z,96872.81
2022-10-26T18:35:18.734Z,96874.31
2022-10-26T18:38:20.246Z,96875.63
2022-10-26T18:41:23.375Z,96868.41
2022-10-26T18:44:24.945Z,96871.25
2022-10-26T18:47:28.954Z,96867.38
2022-10-26T18:50:30.478Z,96873.25
2022-10-26T18:53:33.408Z,96877.25
2022-10-26T18:56:34.964Z,96869.69
2022-10-26T18:59:36.496Z,96884.28
2022-10-26T19:02:38.050Z,96886.91
2022-10-26T19:05:41.249Z,96894.13
2022-10-26T19:08:43.882Z,96893.78
2022-10-26T19:11:45.970Z,96895.09
2022-10-26T19:14:47.572Z,96895.88
2022-10-26T19:17:49.161Z,96898.03
2022-10-26T19:20:50.656Z,96908.25
2022-10-26T19:23:54.761Z,96911.41
2022-10-26T19:26:56.683Z,96904.84
2022-10-26T19:29:59.054Z,96908.53
2022-10-26T19:33:00.606Z,96914.53
2022-10-26T19:36:04.941Z,96913.19
2022-10-26T19:39:07.463Z,96919.69
2022-10-26T19:42:09.020Z,96924.34
2022-10-26T19:45:10.821Z,96922.16
2022-10-26T19:48:12.416Z,96930.34
2022-10-26T19:51:14.108Z,96929.84
2022-10-26T19:54:15.677Z,96930.16
2022-10-26T19:57:17.163Z,96927.94
2022-10-26T20:00:18.979Z,96911.94
2022-10-26T20:03:23.270Z,96934.78
2022-10-26T20:06:24.913Z,96930.72
2022-10-26T20:09:27.270Z,96944.25
2022-10-26T20:12:28.833Z,96937.84
2022-10-26T20:15:30.362Z,96939.69
2022-10-26T20:18:31.899Z,96941.84
2022-10-26T20:21:33.502Z,96944.81
2022-10-26T20:24:34.989Z,96947.13
2022-10-26T20:27:41.365Z,96950.09
2022-10-26T20:30:43.957Z,96949.59
2022-10-26T20:33:48.609Z,96960.59
2022-10-26T20:36:50.132Z,96958.25
2022-10-26T20:39:52.396Z,96955.16
2022-10-26T20:42:55.492Z,96953.66
2022-10-26T20:45:57.699Z,96951.41
2022-10-26T20:48:59.450Z,96950.03
2022-10-26T20:52:21.086Z,96942.91
2022-10-26T20:56:01.525Z,96955.16
2022-10-26T20:59:04.076Z,96959.31
2022-10-26T21:02:09.997Z,96956.22
2022-10-26T21:05:11.537Z,96965.53
2022-10-26T21:08:13.632Z,96965.81
2022-10-26T21:11:15.850Z,96958.25
2022-10-26T21:14:17.401Z,96958.84
2022-10-26T21:17:19.181Z,96962.22
2022-10-26T21:20:20.713Z,96964.34
2022-10-26T21:23:22.205Z,96965.47
2022-10-26T21:26:23.722Z,96965.78
2022-10-26T21:29:25.277Z,96969.59
2022-10-26T21:32:26.803Z,96970.91
2022-10-26T21:35:28.329Z,96972.88
2022-10-26T21:38:31.166Z,96973.00
2022-10-26T21:41:36.210Z,96966.56
2022-10-26T21:44:41.793Z,96984.19
2022-10-26T21:47:44.864Z,96985.16
2022-10-26T21:50:46.384Z,96980.25
2022-10-26T21:53:49.272Z,96984.59
2022-10-26T21:56:50.773Z,96984.78
2022-10-26T21:59:52.306Z,96984.22
2022-10-26T22:02:53.962Z,96983.50
2022-10-26T22:05:55.584Z,96987.47
2022-10-26T22:08:57.101Z,96988.31
2022-10-26T22:11:58.723Z,96977.38
2022-10-26T22:15:00.220Z,96987.09
2022-10-26T22:18:01.759Z,96970.06
2022-10-26T22:21:05.080Z,96977.13
2022-10-26T22:24:07.285Z,96979.94
2022-10-26T22:27:08.808Z,96973.19
2022-10-26T22:30:11.157Z,96983.06
2022-10-26T22:33:13.250Z,96991.22
2022-10-26T22:36:15.973Z,96981.63
2022-10-26T22:39:18.017Z,96985.16
2022-10-26T22:42:19.656Z,96979.28
2022-10-26T22:45:21.301Z,96990.97
2022-10-26T22:48:22.854Z,96985.59
2022-10-26T22:51:27.254Z,96992.09
2022-10-26T22:54:28.805Z,96984.50
2022-10-26T22:57:30.366Z,96981.13
2022-10-26T23:00:31.927Z,96978.59
2022-10-26T23:03:34.390Z,96972.69
2022-10-26T23:06:36.029Z,96978.03
2022-10-26T23:09:37.581Z,96979.31
2022-10-26T23:12:39.110Z,96976.09
2022-10-26T23:15:40.675Z,96966.66
2022-10-26T23:18:42.298Z,96981.00
2022-10-26T23:21:44.128Z,96980.47
2022-10-26T23:24:45.710Z,96977.38
2022-10-26T23:27:47.242Z,96986.41
2022-10-26T23:30:48.806Z,96976.84
2022-10-26T23:33:51.311Z,96992.31
2022-10-26T23:36:53.298Z,96994.28
2022-10-26T23:39:54.804Z,96991.75
2022-10-26T23:42:56.367Z,96996.53
2022-10-26T23:45:57.984Z,96991.59
2022-10-26T23:48:59.560Z,97002.16
2022-10-26T23:52:01.057Z,97003.97
2022-10-26T23:55:02.619Z,96992.75
2022-10-26T23:58:04.834Z,96997.25
